Time;durP1;ratioP1;P1;durP2;ratioP2;P2;SDS_P1;SDS_P2;PMS_P1;PMS_P2;Temp;Humidity;BMP_temperature;BMP_pressure;BME280_temperature;BME280_humidity;BME280_pressure;Samples;Min_cycle;Max_cycle;Signal;HPM_P1;HPM_P2
2023/03/10 00:01:10;;;;;;;1.53;0.60;;;;;;;12.41;94.36;97947.16;5001926;28;20476;-50
2023/03/10 00:03:37;;;;;;;0.47;0.30;;;;;;;12.41;94.38;97940.03;4989788;28;20963;-50
2023/03/10 00:06:03;;;;;;;0.40;0.30;;;;;;;12.55;93.91;97951.47;5002593;28;20462;-50
2023/03/10 00:08:30;;;;;;;0.40;0.30;;;;;;;12.53;93.93;97943.59;5005084;28;20467;-50
2023/03/10 00:10:56;;;;;;;11.20;0.47;;;;;;;12.49;94.38;97949.28;5000902;28;20473;-50
2023/03/10 00:13:23;;;;;;;0.70;0.40;;;;;;;12.43;94.21;97954.06;4998224;28;20460;-49
2023/03/10 00:15:49;;;;;;;2.00;0.40;;;;;;;12.54;94.62;97936.44;5002349;28;20453;-49
2023/03/10 00:18:15;;;;;;;9.43;0.73;;;;;;;12.48;94.86;97931.59;5004714;28;22186;-50
2023/03/10 00:20:42;;;;;;;0.60;0.60;;;;;;;12.35;94.50;97934.31;5000856;28;20999;-50
2023/03/10 00:23:08;;;;;;;0.30;0.20;;;;;;;12.25;95.89;97935.94;4997872;28;20476;-50
2023/03/10 00:25:35;;;;;;;0.30;0.20;;;;;;;12.31;95.33;97924.81;5002046;28;20467;-50
2023/03/10 00:28:01;;;;;;;0.83;0.50;;;;;;;12.26;95.31;97924.31;5005073;28;20453;-50
2023/03/10 00:30:28;;;;;;;1.47;0.50;;;;;;;12.20;96.38;97919.44;5001144;28;20601;-50
2023/03/10 00:32:57;;;;;;;2.10;0.83;;;;;;;12.32;95.88;97914.03;4997888;28;20452;-50
2023/03/10 00:35:24;;;;;;;0.40;0.20;;;;;;;12.33;95.73;97914.91;5001201;28;20490;-50
2023/03/10 00:37:50;;;;;;;0.50;0.30;;;;;;;12.39;95.31;97914.47;5004546;28;20478;-50
2023/03/10 00:40:17;;;;;;;0.40;0.20;;;;;;;12.30;95.40;97902.66;5001828;28;20527;-50
2023/03/10 00:42:43;;;;;;;0.40;0.30;;;;;;;12.30;95.45;97904.47;4997611;28;20464;-50
2023/03/10 00:45:10;;;;;;;0.70;0.70;;;;;;;12.17;95.63;97901.88;4982209;28;20485;-50
2023/03/10 00:47:36;;;;;;;0.60;0.40;;;;;;;12.15;95.98;97895.81;5004642;28;20552;-50
2023/03/10 00:50:03;;;;;;;0.40;0.33;;;;;;;12.37;95.47;97892.41;5001531;28;20603;-50
2023/03/10 00:52:31;;;;;;;0.90;0.87;;;;;;;12.26;95.98;97895.03;4997633;28;20449;-50
2023/03/10 00:54:58;;;;;;;0.50;0.50;;;;;;;12.34;95.31;97893.50;5000211;28;20481;-50
2023/03/10 00:57:25;;;;;;;0.40;0.30;;;;;;;12.33;95.27;97888.25;5004259;28;20550;-50
2023/03/10 00:59:51;;;;;;;3.80;0.50;;;;;;;12.33;95.70;97888.25;5002166;28;20472;-50
2023/03/10 01:02:18;;;;;;;0.40;0.30;;;;;;;12.27;95.95;97880.75;4986529;28;20946;-50
2023/03/10 01:04:46;;;;;;;0.43;0.37;;;;;;;12.34;95.89;97887.31;5002034;28;20836;-50
2023/03/10 01:07:13;;;;;;;0.40;0.30;;;;;;;12.34;95.86;97884.66;4996677;28;20449;-50
2023/03/10 01:09:39;;;;;;;2.57;0.50;;;;;;;12.46;95.61;97875.72;4999625;28;20459;-50
2023/03/10 01:12:06;;;;;;;0.40;0.30;;;;;;;12.34;95.88;97880.19;5004166;28;20456;-50
2023/03/10 01:14:32;;;;;;;0.60;0.50;;;;;;;12.38;96.66;97878.13;5001988;28;20910;-50
2023/03/10 01:16:59;;;;;;;1.23;0.73;;;;;;;12.30;96.83;97875.19;4997383;28;20509;-50
2023/03/10 01:19:25;;;;;;;0.50;0.40;;;;;;;12.33;97.26;97873.13;4999208;28;20450;-50
2023/03/10 01:21:52;;;;;;;0.57;0.57;;;;;;;12.16;97.31;97863.72;5003748;28;20474;-50
2023/03/10 01:24:18;;;;;;;0.30;0.30;;;;;;;12.26;98.03;97871.91;5002321;28;20460;-50
2023/03/10 01:26:45;;;;;;;0.40;0.30;;;;;;;12.26;97.64;97855.91;4997367;28;20482;-50
2023/03/10 01:29:11;;;;;;;4.77;0.50;;;;;;;12.25;97.92;97859.53;4998907;28;20461;-50
2023/03/10 01:31:41;;;;;;;0.40;0.30;;;;;;;12.15;97.72;97851.38;5003630;28;20469;-50
2023/03/10 01:34:07;;;;;;;0.77;0.30;;;;;;;12.22;97.80;97842.94;5002715;28;20492;-49
2023/03/10 01:36:34;;;;;;;0.40;0.30;;;;;;;12.06;97.94;97837.88;4997097;28;20544;-50
2023/03/10 01:39:00;;;;;;;0.30;0.20;;;;;;;12.11;98.22;97835.75;4997993;28;20907;-50
2023/03/10 01:41:27;;;;;;;0.50;0.30;;;;;;;12.13;98.04;97829.34;5003850;28;20469;-50
2023/03/10 01:43:55;;;;;;;0.50;0.30;;;;;;;12.19;98.15;97828.03;4983755;28;20461;-50
2023/03/10 01:46:46;;;;;;;1.57;0.37;;;;;;;12.19;97.57;97828.03;5002882;28;20481;-50
2023/03/10 01:49:30;;;;;;;0.40;0.30;;;;;;;12.18;98.24;97820.16;5001664;28;20942;-50
2023/03/10 01:52:25;;;;;;;0.30;0.30;;;;;;;12.23;97.75;97828.66;4993539;28;20455;-50
2023/03/10 01:54:55;;;;;;;5.10;0.30;;;;;;;12.23;97.97;97810.03;4980702;28;20490;-50
2023/03/10 01:57:25;;;;;;;0.40;0.30;;;;;;;12.19;97.91;97811.19;5003669;28;20526;-50
2023/03/10 01:59:53;;;;;;;0.30;0.20;;;;;;;12.20;98.36;97807.56;5001530;28;20533;-50
2023/03/10 02:02:19;;;;;;;1.47;0.30;;;;;;;12.29;97.85;97801.56;4985719;28;20465;-50
2023/03/10 02:04:47;;;;;;;0.37;0.30;;;;;;;12.27;97.60;97798.16;5001587;28;20445;-50
2023/03/10 02:07:17;;;;;;;1.17;0.40;;;;;;;12.14;98.77;97790.25;4996608;28;20517;-50
2023/03/10 02:09:47;;;;;;;0.53;0.33;;;;;;;11.92;98.80;97783.00;4997902;28;20495;-50
2023/03/10 02:12:15;;;;;;;0.60;0.50;;;;;;;11.95;99.50;97789.94;5003709;28;20454;-50
2023/03/10 02:14:44;;;;;;;0.30;0.30;;;;;;;12.06;99.11;97780.19;5002843;28;20496;-50
2023/03/10 02:17:15;;;;;;;0.93;0.53;;;;;;;12.09;98.60;97773.78;4996120;28;20822;-50
2023/03/10 02:19:51;;;;;;;0.30;0.30;;;;;;;12.09;98.84;97779.94;4996310;28;20528;-50
2023/03/10 02:22:17;;;;;;;0.30;0.20;;;;;;;12.05;98.77;97775.81;5001523;28;20953;-50
2023/03/10 02:24:50;;;;;;;1.13;0.47;;;;;;;12.03;100.00;97784.88;5003168;28;20449;-50
2023/03/10 02:27:21;;;;;;;2.43;0.50;;;;;;;12.02;100.00;97770.72;4999312;28;20514;-50
2023/03/10 02:29:58;;;;;;;0.40;0.20;;;;;;;11.95;100.00;97764.16;4996399;28;20504;-50
2023/03/10 02:32:29;;;;;;;0.37;0.30;;;;;;;11.95;100.00;97773.97;4998235;28;20455;-50
2023/03/10 02:34:55;;;;;;;0.40;0.30;;;;;;;11.82;100.00;97766.03;5003226;28;20544;-50
2023/03/10 02:37:28;;;;;;;0.30;0.30;;;;;;;11.98;100.00;97763.94;5001772;28;21021;-50
2023/03/10 02:39:56;;;;;;;0.30;0.20;;;;;;;11.90;100.00;97768.97;4996165;28;20550;-50
2023/03/10 02:42:25;;;;;;;0.30;0.20;;;;;;;11.67;100.00;97761.81;4996713;28;20454;-49
2023/03/10 02:44:53;;;;;;;0.30;0.20;;;;;;;11.70;100.00;97757.13;4996496;28;20445;-50
2023/03/10 02:47:19;;;;;;;0.50;0.50;;;;;;;11.76;100.00;97759.31;4996438;28;20482;-50
2023/03/10 02:49:46;;;;;;;0.40;0.33;;;;;;;11.75;100.00;97757.63;5002365;28;20504;-50
2023/03/10 02:52:33;;;;;;;0.30;0.20;;;;;;;11.77;100.00;97752.16;5002722;28;20448;-51
2023/03/10 02:54:59;;;;;;;0.30;0.30;;;;;;;11.75;100.00;97754.94;4989692;28;20489;-50
2023/03/10 02:57:26;;;;;;;0.50;0.30;;;;;;;11.70;100.00;97758.94;5002833;28;20446;-50
2023/03/10 02:59:52;;;;;;;0.40;0.30;;;;;;;11.85;100.00;97742.69;5000650;28;20469;-50
2023/03/10 03:02:19;;;;;;;0.40;0.30;;;;;;;11.82;100.00;97742.94;4985176;28;20457;-50
2023/03/10 03:04:45;;;;;;;0.40;0.30;;;;;;;11.78;100.00;97753.88;5000851;28;20449;-50
2023/03/10 03:07:11;;;;;;;0.60;0.30;;;;;;;11.65;100.00;97726.47;4995779;28;20448;-50
2023/03/10 03:09:38;;;;;;;0.30;0.20;;;;;;;11.68;100.00;97720.94;4997624;28;20540;-50
2023/03/10 03:12:05;;;;;;;0.60;0.40;;;;;;;11.65;100.00;97739.78;5002399;28;20519;-50
2023/03/10 03:14:31;;;;;;;0.63;0.63;;;;;;;11.69;100.00;97730.63;5001137;28;20496;-50
2023/03/10 03:16:57;;;;;;;0.33;0.20;;;;;;;11.72;100.00;97736.56;4995813;28;20456;-50
2023/03/10 03:19:24;;;;;;;0.50;0.40;;;;;;;11.57;100.00;97746.53;4997232;28;20460;-50
2023/03/10 03:21:54;;;;;;;0.50;0.50;;;;;;;11.64;100.00;97740.75;5002079;28;20972;-50
2023/03/10 03:24:20;;;;;;;0.40;0.30;;;;;;;11.77;100.00;97744.19;5001714;28;20486;-50
2023/03/10 03:26:46;;;;;;;0.40;0.30;;;;;;;11.61;100.00;97733.84;4995437;28;20456;-50
2023/03/10 03:29:13;;;;;;;0.40;0.30;;;;;;;11.54;100.00;97728.13;4997184;28;20449;-50
2023/03/10 03:31:40;;;;;;;0.40;0.27;;;;;;;11.53;100.00;97734.41;5005598;28;20477;-50
2023/03/10 03:34:06;;;;;;;0.40;0.30;;;;;;;11.49;100.00;97745.38;5005515;28;20452;-50
2023/03/10 03:36:33;;;;;;;0.30;0.20;;;;;;;11.57;100.00;97757.16;4998866;28;20502;-51
2023/03/10 03:39:00;;;;;;;0.30;0.20;;;;;;;11.56;100.00;97742.16;4999143;28;20458;-51
2023/03/10 03:41:26;;;;;;;0.40;0.30;;;;;;;11.51;100.00;97746.09;5005645;28;20469;-51
2023/03/10 03:43:52;;;;;;;0.40;0.30;;;;;;;11.58;100.00;97734.91;4986769;28;20450;-51
2023/03/10 03:46:19;;;;;;;1.13;0.50;;;;;;;11.57;100.00;97735.03;5005402;28;20452;-51
2023/03/10 03:48:45;;;;;;;0.40;0.20;;;;;;;11.55;100.00;97731.63;5005429;28;20452;-50
2023/03/10 03:51:12;;;;;;;0.30;0.20;;;;;;;11.51;100.00;97739.00;4998565;28;20985;-50
2023/03/10 03:53:38;;;;;;;0.30;0.30;;;;;;;11.52;100.00;97735.38;4998549;28;20449;-51
2023/03/10 03:56:05;;;;;;;0.40;0.30;;;;;;;11.60;100.00;97734.81;4986137;28;20496;-51
2023/03/10 03:58:31;;;;;;;0.30;0.20;;;;;;;11.64;100.00;97735.41;4998301;28;20960;-51
2023/03/10 04:00:58;;;;;;;0.40;0.30;;;;;;;11.64;100.00;97722.97;5004735;28;20479;-51
2023/03/10 04:03:24;;;;;;;0.40;0.20;;;;;;;11.63;100.00;97723.06;4986118;28;20966;-51
2023/03/10 04:05:51;;;;;;;10.70;0.80;;;;;;;11.60;100.00;97739.28;5004654;28;20445;-51
2023/03/10 04:08:17;;;;;;;0.30;0.20;;;;;;;11.79;99.65;97729.88;5005016;28;20460;-51
2023/03/10 04:10:50;;;;;;;0.70;0.30;;;;;;;11.69;100.00;97717.31;4999046;28;20472;-51
2023/03/10 04:13:16;;;;;;;0.50;0.40;;;;;;;11.57;100.00;97727.06;4998424;28;20456;-51
2023/03/10 04:15:43;;;;;;;8.03;0.50;;;;;;;11.58;100.00;97723.44;5003438;28;20618;-51
2023/03/10 04:18:09;;;;;;;0.40;0.30;;;;;;;11.68;99.39;97727.13;5005102;28;20878;-51
2023/03/10 04:20:36;;;;;;;0.40;0.37;;;;;;;11.56;99.68;97714.72;4999620;28;20563;-51
2023/03/10 04:23:03;;;;;;;3.30;0.50;;;;;;;11.53;99.57;97714.94;4998030;28;20453;-50
2023/03/10 04:25:30;;;;;;;0.73;0.73;;;;;;;11.64;98.93;97706.16;5003433;28;20499;-50
2023/03/10 04:27:56;;;;;;;0.40;0.40;;;;;;;11.63;98.98;97705.31;5004947;28;20452;-50
2023/03/10 04:30:28;;;;;;;0.40;0.33;;;;;;;11.78;98.42;97701.50;4999837;28;20469;-51
2023/03/10 04:32:58;;;;;;;4.63;0.70;;;;;;;11.75;98.31;97703.53;4998132;28;20449;-51
2023/03/10 04:35:26;;;;;;;0.93;0.80;;;;;;;11.65;98.86;97692.75;5001394;28;21013;-51
2023/03/10 04:37:52;;;;;;;3.20;0.80;;;;;;;11.57;98.81;97688.00;5004847;28;20514;-51
2023/03/10 04:40:19;;;;;;;9.90;1.13;;;;;;;11.76;98.01;97698.09;5001675;28;20567;-51
2023/03/10 04:42:46;;;;;;;0.50;0.40;;;;;;;11.68;97.96;97678.38;4995794;28;21013;-51
2023/03/10 04:45:12;;;;;;;6.80;0.90;;;;;;;11.74;97.36;97675.22;4982379;28;20822;-50
2023/03/10 04:47:40;;;;;;;3.77;1.17;;;;;;;11.81;97.71;97669.38;5004547;28;20800;-50
2023/03/10 04:50:09;;;;;;;0.40;0.30;;;;;;;11.89;96.58;97668.78;5001811;28;20476;-51
2023/03/10 04:52:35;;;;;;;0.30;0.20;;;;;;;11.80;96.55;97664.16;4998054;28;20944;-51
2023/03/10 04:55:02;;;;;;;0.83;0.30;;;;;;;11.92;96.11;97660.53;5010813;28;20487;-50
2023/03/10 04:57:28;;;;;;;0.50;0.50;;;;;;;12.02;95.90;97661.56;4997614;28;20893;-51
2023/03/10 04:59:55;;;;;;;2.10;1.90;;;;;;;12.06;95.89;97662.16;4999315;28;21067;-50
2023/03/10 05:02:21;;;;;;;0.40;0.30;;;;;;;11.88;95.22;97659.09;5002637;28;20463;-50
2023/03/10 05:04:48;;;;;;;0.70;0.60;;;;;;;12.05;95.46;97655.97;4999396;28;20950;-50
2023/03/10 05:07:14;;;;;;;2.70;0.60;;;;;;;12.01;95.17;97643.88;5003029;28;20541;-50
2023/03/10 05:09:41;;;;;;;0.50;0.40;;;;;;;11.85;94.58;97649.53;5002693;28;20453;-50
2023/03/10 05:12:09;;;;;;;4.90;0.97;;;;;;;11.94;94.09;97655.13;4997576;28;20859;-50
2023/03/10 05:14:36;;;;;;;2.10;0.50;;;;;;;11.89;94.68;97633.31;4992472;28;20449;-50
2023/03/10 05:17:03;;;;;;;0.40;0.37;;;;;;;11.86;94.38;97635.25;5004010;28;20500;-50
2023/03/10 05:19:32;;;;;;;1.57;0.60;;;;;;;11.89;94.27;97631.50;5002777;28;21044;-50
2023/03/10 05:21:59;;;;;;;6.97;1.03;;;;;;;11.74;95.42;97628.19;4997194;28;20468;-49
2023/03/10 05:24:26;;;;;;;0.40;0.40;;;;;;;11.82;95.57;97623.16;4998249;28;20546;-50
2023/03/10 05:26:52;;;;;;;1.50;1.40;;;;;;;11.90;95.37;97629.69;5009881;28;20445;-50
2023/03/10 05:29:19;;;;;;;4.30;0.50;;;;;;;11.84;95.16;97631.03;4997662;28;20460;-51
2023/03/10 05:31:46;;;;;;;1.13;0.70;;;;;;;11.74;95.56;97636.16;5003719;28;20484;-50
2023/03/10 05:34:13;;;;;;;0.47;0.30;;;;;;;11.55;96.18;97633.22;5003812;28;20491;-50
2023/03/10 05:36:40;;;;;;;0.77;0.57;;;;;;;11.51;97.44;97635.25;4996943;28;20499;-50
2023/03/10 05:39:08;;;;;;;1.57;1.50;;;;;;;11.54;97.21;97640.34;4997131;28;20548;-52
2023/03/10 05:41:35;;;;;;;0.53;0.37;;;;;;;11.64;97.48;97634.31;4984943;28;20508;-51
2023/03/10 05:44:02;;;;;;;1.00;0.90;;;;;;;11.52;97.72;97628.13;4996527;28;20464;-50
2023/03/10 05:46:29;;;;;;;6.73;1.37;;;;;;;11.51;98.67;97635.25;5003352;28;20450;-51
2023/03/10 05:48:56;;;;;;;1.90;0.90;;;;;;;11.58;98.96;97646.28;5003412;28;20981;-51
2023/03/10 05:51:22;;;;;;;3.00;0.80;;;;;;;11.54;98.93;97647.47;4997513;28;20508;-50
2023/03/10 05:53:49;;;;;;;0.60;0.57;;;;;;;11.54;99.43;97642.16;4995641;28;20874;-50
2023/03/10 05:56:17;;;;;;;0.40;0.20;;;;;;;11.51;99.86;97634.38;4998014;28;20489;-50
2023/03/10 05:58:45;;;;;;;2.70;0.90;;;;;;;11.47;99.99;97628.44;4996527;28;20833;-51
2023/03/10 06:01:12;;;;;;;2.83;1.33;;;;;;;11.56;100.00;97632.25;4999454;28;20481;-50
2023/03/10 06:03:39;;;;;;;0.40;0.30;;;;;;;11.41;100.00;97642.22;4987125;28;20486;-50
2023/03/10 06:06:06;;;;;;;27.93;1.10;;;;;;;11.52;100.00;97636.09;5001059;28;20963;-49
2023/03/10 06:08:33;;;;;;;9.83;1.80;;;;;;;11.51;100.00;97627.28;5002741;28;21018;-51
2023/03/10 06:11:00;;;;;;;1.43;0.50;;;;;;;11.54;100.00;97628.84;4998814;28;20506;-50
2023/03/10 06:13:26;;;;;;;4.60;0.93;;;;;;;11.60;100.00;97646.16;4996689;28;20456;-50
2023/03/10 06:15:59;;;;;;;0.60;0.50;;;;;;;11.60;100.00;97639.03;5000320;28;20511;-50
2023/03/10 06:18:26;;;;;;;1.00;0.60;;;;;;;11.51;100.00;97639.69;5003143;28;20481;-50
2023/03/10 06:20:53;;;;;;;0.50;0.30;;;;;;;11.41;100.00;97642.22;4999949;28;20526;-50
2023/03/10 06:23:20;;;;;;;8.37;0.83;;;;;;;11.52;99.15;97649.41;4996391;28;20849;-50
2023/03/10 06:25:59;;;;;;;0.30;0.20;;;;;;;11.61;94.74;97646.03;4999150;28;21045;-50
2023/03/10 06:28:31;;;;;;;3.63;0.60;;;;;;;11.72;95.38;97650.56;5002769;28;20464;-50
2023/03/10 06:30:59;;;;;;;0.50;0.40;;;;;;;11.64;94.75;97645.78;5002771;28;20526;-49
2023/03/10 06:33:27;;;;;;;0.70;0.70;;;;;;;11.49;95.40;97649.59;5003153;28;20457;-50
2023/03/10 06:35:53;;;;;;;0.40;0.30;;;;;;;11.53;95.28;97648.44;5002724;28;20491;-50
2023/03/10 06:38:20;;;;;;;0.30;0.20;;;;;;;11.52;93.83;97650.25;5002799;28;20974;-49
2023/03/10 06:40:47;;;;;;;0.50;0.30;;;;;;;11.38;95.14;97645.13;5002821;28;20476;-51
2023/03/10 06:43:15;;;;;;;2.53;0.53;;;;;;;11.50;94.66;97644.16;4988352;28;20457;-50
2023/03/10 06:45:43;;;;;;;0.30;0.30;;;;;;;11.31;95.35;97651.00;4984153;28;20453;-50
2023/03/10 06:48:11;;;;;;;0.70;0.40;;;;;;;11.20;95.44;97644.66;5002189;28;20485;-49
2023/03/10 06:50:42;;;;;;;0.80;0.80;;;;;;;11.21;95.48;97643.69;5002513;28;20473;-51
2023/03/10 06:53:10;;;;;;;0.30;0.20;;;;;;;11.42;94.77;97643.06;4998045;28;20448;-50
2023/03/10 06:55:37;;;;;;;0.50;0.20;;;;;;;11.42;94.57;97630.63;4995931;28;20485;-51
2023/03/10 06:58:03;;;;;;;0.47;0.30;;;;;;;11.43;94.04;97637.63;5000265;28;20457;-50
2023/03/10 07:00:30;;;;;;;1.00;0.30;;;;;;;11.45;94.30;97625.06;5002480;28;20843;-50
2023/03/10 07:02:56;;;;;;;0.50;0.30;;;;;;;11.55;94.76;97620.75;4983011;28;20478;-49
2023/03/10 07:05:26;;;;;;;0.40;0.30;;;;;;;11.58;94.54;97631.16;5004761;28;20450;-51
2023/03/10 07:07:54;;;;;;;0.93;0.50;;;;;;;11.54;95.07;97640.34;5002892;28;20463;-50
2023/03/10 07:10:21;;;;;;;1.67;0.40;;;;;;;11.60;95.46;97632.84;4999394;28;20560;-51
2023/03/10 07:12:53;;;;;;;0.50;0.37;;;;;;;11.47;97.11;97632.91;5002022;28;20831;-50
2023/03/10 07:15:21;;;;;;;5.57;0.60;;;;;;;11.48;98.46;97642.59;5006013;28;20528;-50
2023/03/10 07:17:48;;;;;;;1.90;0.70;;;;;;;11.42;100.00;97651.91;5003976;28;20790;-50
2023/03/10 07:20:14;;;;;;;0.40;0.30;;;;;;;11.38;99.86;97658.41;4999360;28;20476;-50
2023/03/10 07:22:41;;;;;;;0.40;0.30;;;;;;;11.17;100.00;97665.31;5000630;28;20465;-50
2023/03/10 07:25:08;;;;;;;1.03;0.63;;;;;;;11.45;100.00;97653.47;5000477;28;20943;-50
2023/03/10 07:27:34;;;;;;;0.50;0.50;;;;;;;11.18;97.75;97645.72;4984897;28;20934;-50
2023/03/10 07:30:01;;;;;;;4.77;0.53;;;;;;;11.43;98.32;97631.47;5005661;28;20476;-50
2023/03/10 07:32:27;;;;;;;1.53;0.30;;;;;;;11.25;97.80;97625.72;5004273;28;20452;-50
2023/03/10 07:34:54;;;;;;;0.30;0.20;;;;;;;11.44;98.61;97622.53;4999034;28;20962;-50
2023/03/10 07:37:20;;;;;;;0.60;0.30;;;;;;;11.15;96.42;97617.56;4999774;28;20896;-51
2023/03/10 07:39:47;;;;;;;0.40;0.40;;;;;;;11.34;96.47;97627.66;5005499;28;20477;-50
2023/03/10 07:42:13;;;;;;;1.07;1.00;;;;;;;11.13;95.01;97627.47;5004691;28;20448;-50
2023/03/10 07:44:40;;;;;;;0.57;0.57;;;;;;;11.21;94.60;97632.19;4998559;28;20452;-50
2023/03/10 07:47:06;;;;;;;0.50;0.30;;;;;;;11.11;95.13;97647.16;4999587;28;20446;-50
2023/03/10 07:49:32;;;;;;;3.60;0.83;;;;;;;11.01;94.79;97643.47;5005402;28;20454;-50
2023/03/10 07:51:59;;;;;;;0.30;0.20;;;;;;;11.03;94.89;97649.50;5004896;28;20452;-49
2023/03/10 07:54:25;;;;;;;3.60;0.30;;;;;;;11.14;94.21;97657.56;4992878;28;20453;-51
2023/03/10 07:56:51;;;;;;;0.50;0.47;;;;;;;11.20;94.30;97663.25;5004907;28;20515;-49
2023/03/10 07:59:18;;;;;;;0.40;0.30;;;;;;;11.32;93.79;97663.31;4998491;28;20449;-51
2023/03/10 08:01:44;;;;;;;0.30;0.20;;;;;;;11.31;95.25;97670.44;4992508;28;20482;-50
2023/03/10 08:04:11;;;;;;;1.10;0.50;;;;;;;11.26;93.76;97660.16;4997797;28;20509;-51
2023/03/10 08:06:38;;;;;;;0.30;0.20;;;;;;;11.44;93.01;97660.59;4999156;28;20456;-50
2023/03/10 08:09:04;;;;;;;0.30;0.20;;;;;;;11.11;94.60;97663.94;5005275;28;20452;-50
2023/03/10 08:11:30;;;;;;;0.40;0.30;;;;;;;11.19;94.61;97666.03;5004737;28;20847;-50
2023/03/10 08:13:57;;;;;;;0.30;0.20;;;;;;;11.08;94.02;97663.31;4998084;28;20953;-50
2023/03/10 08:16:23;;;;;;;7.77;0.53;;;;;;;11.25;93.97;97665.59;4998110;28;20915;-50
2023/03/10 08:18:52;;;;;;;0.60;0.50;;;;;;;11.19;94.32;97669.53;5004960;28;20468;-50
2023/03/10 08:21:19;;;;;;;0.67;0.30;;;;;;;11.23;93.50;97678.13;5004652;28;20492;-50
2023/03/10 08:23:45;;;;;;;0.40;0.37;;;;;;;11.23;93.69;97683.44;4998984;28;21002;-51
2023/03/10 08:26:14;;;;;;;0.40;0.30;;;;;;;11.47;92.82;97679.00;4998576;28;20969;-50
2023/03/10 08:28:41;;;;;;;1.90;0.53;;;;;;;11.46;92.23;97682.63;5003208;28;20506;-51
2023/03/10 08:31:14;;;;;;;0.40;0.30;;;;;;;11.52;92.47;97684.84;5004622;28;20526;-50
2023/03/10 08:33:41;;;;;;;1.77;0.37;;;;;;;11.83;91.77;97696.72;5000748;28;20449;-50
2023/03/10 08:36:20;;;;;;;0.53;0.40;;;;;;;11.76;91.93;97692.78;4997751;28;21029;-51
2023/03/10 08:38:49;;;;;;;0.30;0.20;;;;;;;11.73;91.23;97687.69;5000449;28;20449;-50
2023/03/10 08:41:22;;;;;;;1.90;0.80;;;;;;;12.04;90.63;97701.38;5004492;28;20492;-50
2023/03/10 08:43:51;;;;;;;1.03;0.30;;;;;;;11.89;91.14;97699.88;4985633;28;20847;-50
2023/03/10 08:46:19;;;;;;;0.73;0.67;;;;;;;11.69;90.56;97706.66;4995995;28;20936;-50
2023/03/10 08:48:46;;;;;;;0.63;0.50;;;;;;;11.92;90.65;97715.59;4998588;28;20450;-50
2023/03/10 08:51:13;;;;;;;0.50;0.40;;;;;;;11.65;90.91;97703.41;5004229;28;20840;-50
2023/03/10 08:53:43;;;;;;;0.40;0.40;;;;;;;11.81;91.38;97714.63;5003874;28;20953;-50
2023/03/10 08:56:09;;;;;;;0.40;0.30;;;;;;;11.72;90.48;97719.75;4998280;28;20575;-50
2023/03/10 08:58:36;;;;;;;0.40;0.30;;;;;;;11.63;91.16;97715.09;4997640;28;20449;-50
2023/03/10 09:01:03;;;;;;;3.37;0.80;;;;;;;11.77;91.04;97712.25;5003328;28;20501;-50
2023/03/10 09:03:30;;;;;;;0.50;0.43;;;;;;;11.98;90.61;97717.81;4998253;28;20453;-50
2023/03/10 09:05:57;;;;;;;0.40;0.30;;;;;;;11.61;91.26;97723.19;4998341;28;20453;-49
2023/03/10 09:08:23;;;;;;;0.90;0.43;;;;;;;11.61;90.96;97722.34;4997648;28;20478;-50
2023/03/10 09:10:53;;;;;;;0.97;0.63;;;;;;;11.68;90.96;97724.44;5003179;28;20505;-50
2023/03/10 09:13:20;;;;;;;1.90;0.80;;;;;;;11.91;89.99;97716.56;4996851;28;20454;-50
2023/03/10 09:15:46;;;;;;;0.40;0.33;;;;;;;12.03;90.21;97712.97;4999169;28;20448;-50
2023/03/10 09:18:14;;;;;;;0.67;0.67;;;;;;;12.30;90.00;97718.88;4997549;28;20879;-50
2023/03/10 09:20:41;;;;;;;2.93;0.63;;;;;;;11.89;89.13;97727.34;5001913;28;20499;-50
2023/03/10 09:23:09;;;;;;;0.40;0.30;;;;;;;11.98;89.41;97734.63;5003568;28;20529;-50
2023/03/10 09:25:35;;;;;;;7.10;0.43;;;;;;;11.99;89.26;97724.84;4991141;28;20510;-50
2023/03/10 09:28:02;;;;;;;0.40;0.20;;;;;;;12.04;89.35;97733.31;5002678;28;20445;-51
2023/03/10 09:30:29;;;;;;;0.30;0.20;;;;;;;11.74;89.71;97731.97;4999599;28;20468;-50
2023/03/10 09:32:56;;;;;;;0.80;0.37;;;;;;;11.89;90.12;97734.47;4996864;28;20456;-50
2023/03/10 09:35:22;;;;;;;0.90;0.33;;;;;;;11.95;89.84;97729.56;5002010;28;20499;-50
2023/03/10 09:37:49;;;;;;;0.40;0.30;;;;;;;11.86;90.09;97717.78;5004352;28;20588;-51
2023/03/10 09:40:18;;;;;;;0.70;0.70;;;;;;;12.34;88.98;97720.34;4999680;28;20996;-50
2023/03/10 09:42:49;;;;;;;1.13;0.93;;;;;;;12.16;89.68;97717.25;4995442;28;20455;-50
2023/03/10 09:45:50;;;;;;;0.73;0.73;;;;;;;12.38;88.38;97713.81;4981782;28;20450;-50
2023/03/10 09:48:35;;;;;;;0.40;0.40;;;;;;;12.26;89.08;97713.91;4999082;28;20853;-50
2023/03/10 09:51:13;;;;;;;1.00;0.53;;;;;;;12.26;89.82;97712.09;4996718;28;20578;-50
2023/03/10 09:53:46;;;;;;;2.30;0.43;;;;;;;12.32;90.38;97716.94;4996575;28;20495;-50
2023/03/10 09:56:18;;;;;;;0.40;0.37;;;;;;;12.01;91.18;97722.91;4986367;28;20996;-50
2023/03/10 09:58:52;;;;;;;1.53;0.30;;;;;;;12.31;90.98;97719.72;4996927;28;20445;-50
2023/03/10 10:01:22;;;;;;;0.37;0.20;;;;;;;12.00;91.34;97723.88;4998076;28;20555;-50
2023/03/10 10:04:12;;;;;;;3.30;0.37;;;;;;;12.30;90.13;97715.34;4990681;28;20463;-51
2023/03/10 10:06:43;;;;;;;1.47;0.60;;;;;;;12.43;89.39;97718.78;4996650;28;20449;-50
2023/03/10 10:09:28;;;;;;;5.60;0.50;;;;;;;12.63;89.32;97709.25;4997612;28;20941;-50
2023/03/10 10:11:55;;;;;;;1.83;0.30;;;;;;;12.66;88.26;97709.84;4996990;28;20471;-50
2023/03/10 10:14:24;;;;;;;1.47;0.40;;;;;;;12.79;87.61;97714.22;4993368;28;20535;-50
2023/03/10 10:17:08;;;;;;;0.30;0.20;;;;;;;13.09;85.96;97716.25;5002920;28;20492;-51
2023/03/10 10:19:38;;;;;;;10.13;0.80;;;;;;;13.02;85.56;97710.56;5002977;28;20444;-50
2023/03/10 10:22:16;;;;;;;0.67;0.67;;;;;;;13.23;85.24;97714.19;4983362;28;20554;-50
2023/03/10 10:25:01;;;;;;;0.70;0.63;;;;;;;13.39;84.61;97713.78;4996548;28;20446;-50
2023/03/10 10:27:30;;;;;;;0.47;0.40;;;;;;;13.44;84.59;97716.97;4998378;28;20445;-50
2023/03/10 10:29:57;;;;;;;0.50;0.40;;;;;;;13.33;83.72;97714.31;5003090;28;20878;-50
2023/03/10 10:32:24;;;;;;;0.43;0.30;;;;;;;13.33;83.33;97707.16;5002128;28;20456;-49
2023/03/10 10:34:50;;;;;;;9.63;0.57;;;;;;;13.24;83.96;97709.72;4995094;28;20445;-50
2023/03/10 10:37:28;;;;;;;0.37;0.30;;;;;;;13.33;84.79;97708.97;4997294;28;20495;-51
2023/03/10 10:39:56;;;;;;;0.47;0.30;;;;;;;13.39;84.92;97713.78;5000025;28;21071;-51
2023/03/10 10:42:24;;;;;;;0.57;0.57;;;;;;;13.42;85.29;97712.69;4999948;28;20545;-50
2023/03/10 10:44:53;;;;;;;0.30;0.20;;;;;;;13.36;85.28;97708.72;4986377;28;20808;-50
2023/03/10 10:47:35;;;;;;;0.50;0.30;;;;;;;13.49;84.61;97716.56;5006276;28;20543;-50
2023/03/10 10:50:34;;;;;;;0.60;0.30;;;;;;;13.66;84.60;97723.19;5003614;28;20465;-50
2023/03/10 10:53:20;;;;;;;0.57;0.40;;;;;;;13.37;85.28;97730.91;4990726;28;20937;-51
2023/03/10 10:56:02;;;;;;;1.00;0.90;;;;;;;13.53;85.84;97736.69;4999540;28;20449;-51
2023/03/10 10:58:37;;;;;;;0.50;0.40;;;;;;;13.51;84.68;97730.63;4999737;28;20538;-51
2023/03/10 11:01:13;;;;;;;0.40;0.30;;;;;;;13.31;84.97;97735.78;4999872;28;20528;-51
2023/03/10 11:03:44;;;;;;;0.50;0.50;;;;;;;13.41;86.00;97735.00;5006272;28;20451;-51
2023/03/10 11:06:17;;;;;;;0.70;0.70;;;;;;;13.17;88.20;97732.50;5002784;28;20539;-51
2023/03/10 11:08:49;;;;;;;0.93;0.37;;;;;;;13.07;88.21;97735.03;4999245;28;20920;-50
2023/03/10 11:11:39;;;;;;;0.77;0.30;;;;;;;12.94;88.16;97732.50;5001060;28;20466;-51
2023/03/10 11:14:24;;;;;;;6.67;0.37;;;;;;;13.25;88.45;97728.25;5001088;28;20825;-51
2023/03/10 11:17:14;;;;;;;0.87;0.77;;;;;;;13.02;89.37;97726.56;4999263;28;20549;-51
2023/03/10 11:19:48;;;;;;;0.63;0.30;;;;;;;12.87;91.08;97727.75;4998036;28;20448;-51
2023/03/10 11:22:28;;;;;;;1.37;0.47;;;;;;;12.93;91.47;97725.47;5002683;28;20957;-50
2023/03/10 11:25:04;;;;;;;0.40;0.20;;;;;;;12.86;92.89;97728.72;5005965;28;20449;-51
2023/03/10 11:27:54;;;;;;;0.30;0.20;;;;;;;12.63;93.47;97733.22;5004526;28;20497;-51
2023/03/10 11:30:37;;;;;;;20.50;0.37;;;;;;;12.87;93.36;97722.44;4990121;28;20816;-51
2023/03/10 11:33:33;;;;;;;1.53;0.50;;;;;;;12.80;93.24;97722.09;4994925;28;21111;-51
2023/03/10 11:36:17;;;;;;;4.77;0.60;;;;;;;12.94;92.30;97718.31;5005373;28;20448;-51
2023/03/10 11:38:47;;;;;;;0.40;0.30;;;;;;;13.15;91.12;97713.06;5002970;28;20523;-50
2023/03/10 11:41:18;;;;;;;0.30;0.20;;;;;;;13.32;91.35;97708.13;4998575;28;20469;-51